Time;durP1;ratioP1;P1;durP2;ratioP2;P2;SDS_P1;SDS_P2;PMS_P1;PMS_P2;Temp;Humidity;BMP_temperature;BMP_pressure;BME280_temperature;BME280_humidity;BME280_pressure;Samples;Min_cycle;Max_cycle;Signal;HPM_P1;HPM_P2
2022/01/25 00:09:22;;;;;;;;;;;;;;;17.71;55.21;102614.63;5030014;28;1890;-68
2022/01/25 00:25:46;;;;;;;;;;;;;;;18.92;52.24;102590.94;5029777;28;1416;-66
2022/01/25 00:28:22;;;;;;;;;;;;;;;18.80;52.51;102597.00;5030746;28;1902;-67
2022/01/25 00:31:01;;;;;;;;;;;;;;;18.80;53.08;102605.06;5027047;28;1348;-67
2022/01/25 00:33:28;;;;;;;;;;;;;;;18.80;52.57;102599.69;5028524;28;1749;-67
2022/01/25 00:35:56;;;;;;;;;;;;;;;18.72;52.98;102591.19;5026165;28;1410;-67
2022/01/25 00:38:23;;;;;;;;;;;;;;;18.67;52.94;102603.06;5027990;28;1328;-65
2022/01/25 00:40:49;;;;;;;;;;;;;;;18.58;53.29;102595.56;5026863;28;1426;-66
2022/01/25 00:43:16;;;;;;;;;;;;;;;18.48;53.13;102605.06;5024689;28;1383;-66
2022/01/25 00:45:42;;;;;;;;;;;;;;;18.40;53.54;102600.16;5027213;28;1002;-67
2022/01/25 00:48:18;;;;;;;;;;;;;;;18.35;53.46;102607.56;5030918;28;1967;-66
2022/01/25 00:50:44;;;;;;;;;;;;;;;18.27;53.29;102599.97;5025618;28;1610;-66
2022/01/25 00:56:11;;;;;;;;;;;;;;;18.08;52.78;102597.47;5025717;28;1464;-68
2022/01/25 00:58:38;;;;;;;;;;;;;;;18.07;52.91;102602.91;5029202;28;1428;-66
2022/01/25 01:01:04;;;;;;;;;;;;;;;17.98;53.07;102590.00;5029594;28;1516;-68
2022/01/25 01:03:31;;;;;;;;;;;;;;;17.95;52.94;102590.19;5029471;28;1484;-67
2022/01/25 01:05:57;;;;;;;;;;;;;;;17.89;53.25;102592.25;5027254;28;1567;-67
2022/01/25 01:08:25;;;;;;;;;;;;;;;17.84;53.06;102596.13;5029082;28;1995;-66
2022/01/25 01:10:52;;;;;;;;;;;;;;;17.78;53.33;102589.25;5020261;28;1568;-68
2022/01/25 01:16:18;;;;;;;;;;;;;;;17.69;53.81;102585.25;5018725;28;1425;-66
2022/01/25 01:29:54;;;;;;;;;;;;;;;17.59;54.12;102583.19;5026226;28;1912;-68
2022/01/25 01:32:46;;;;;;;;;;;;;;;17.55;54.14;102568.22;5030774;28;1714;-66
2022/01/25 01:35:35;;;;;;;;;;;;;;;17.59;53.76;102567.13;5026519;28;1512;-65
2022/01/25 01:38:17;;;;;;;;;;;;;;;17.69;54.08;102581.72;5030430;28;1543;-68
2022/01/25 01:41:04;;;;;;;;;;;;;;;17.74;54.04;102560.94;5025533;28;1445;-65
2022/01/25 01:43:32;;;;;;;;;;;;;;;17.73;53.90;102550.34;5022691;28;1401;-67
2022/01/25 01:46:17;;;;;;;;;;;;;;;17.74;53.97;102550.22;5018290;28;1496;-65
2022/01/25 01:48:51;;;;;;;;;;;;;;;17.73;53.72;102556.53;5029407;28;1902;-68
2022/01/25 01:51:25;;;;;;;;;;;;;;;17.72;53.88;102552.13;5027595;28;1721;-66
2022/01/25 01:53:52;;;;;;;;;;;;;;;17.72;53.77;102549.44;5029340;28;1607;-67
2022/01/25 01:56:20;;;;;;;;;;;;;;;17.65;53.95;102534.69;5026367;28;1441;-67
2022/01/25 01:58:47;;;;;;;;;;;;;;;17.69;54.11;102542.47;5021852;28;1368;-68
2022/01/25 02:01:15;;;;;;;;;;;;;;;17.66;54.07;102541.75;5017185;28;1289;-67
2022/01/25 02:03:41;;;;;;;;;;;;;;;17.65;54.26;102540.03;5020793;28;1609;-65
2022/01/25 02:06:08;;;;;;;;;;;;;;;17.62;53.95;102548.22;5031951;28;1410;-66
2022/01/25 02:08:35;;;;;;;;;;;;;;;17.55;54.18;102522.72;5029101;28;1975;-67
2022/01/25 02:11:01;;;;;;;;;;;;;;;17.56;54.17;102529.84;5024353;28;1622;-68
2022/01/25 02:13:29;;;;;;;;;;;;;;;17.54;54.05;102524.56;5024329;28;1379;-65
2022/01/25 02:15:58;;;;;;;;;;;;;;;17.53;54.43;102535.31;5015376;28;1020;-67
2022/01/25 02:23:54;;;;;;;;;;;;;;;17.49;54.22;102530.16;5024877;28;1567;-66
2022/01/25 02:26:20;;;;;;;;;;;;;;;17.48;54.43;102517.72;5030171;28;1634;-67
2022/01/25 02:28:47;;;;;;;;;;;;;;;17.40;54.55;102525.28;5028410;28;1906;-66
2022/01/25 02:31:15;;;;;;;;;;;;;;;17.41;54.95;102521.69;5033080;28;972;-65
2022/01/25 02:33:42;;;;;;;;;;;;;;;17.44;54.29;102521.50;5035621;28;1705;-67
2022/01/25 02:36:11;;;;;;;;;;;;;;;17.47;54.38;102510.66;5028220;28;1344;-67
2022/01/25 02:38:38;;;;;;;;;;;;;;;17.48;54.45;102516.88;5031398;28;1304;-67
2022/01/25 02:41:05;;;;;;;;;;;;;;;17.45;54.38;102512.56;5028686;28;1371;-67
2022/01/25 02:43:34;;;;;;;;;;;;;;;17.54;54.15;102513.00;5029036;28;1579;-68
2022/01/25 02:48:29;;;;;;;;;;;;;;;17.69;53.56;102504.16;5030640;28;968;-66
2022/01/25 02:49:08;;;;;;;;;;;;;;;18.17;52.83;102494.34;5030844;28;1992;-66
2022/01/25 02:51:37;;;;;;;;;;;;;;;18.41;52.17;102488.50;5024383;28;1745;-66
2022/01/25 02:54:07;;;;;;;;;;;;;;;18.72;52.29;102489.38;5031764;28;1630;-68
2022/01/25 02:56:34;;;;;;;;;;;;;;;18.86;51.08;102492.09;5027828;28;1595;-67
2022/01/25 02:59:01;;;;;;;;;;;;;;;18.83;51.06;102492.31;5026738;28;1556;-66
2022/01/25 03:01:28;;;;;;;;;;;;;;;18.83;51.81;102503.03;5027201;28;1419;-67
2022/01/25 03:03:55;;;;;;;;;;;;;;;18.77;51.82;102482.78;5034424;28;1765;-65
2022/01/25 03:06:22;;;;;;;;;;;;;;;18.79;51.56;102480.00;5027854;28;1683;-66
2022/01/25 03:08:51;;;;;;;;;;;;;;;18.81;51.47;102492.41;5027486;28;1969;-68
2022/01/25 03:11:19;;;;;;;;;;;;;;;18.72;51.84;102484.88;5027532;28;1634;-68
2022/01/25 03:13:50;;;;;;;;;;;;;;;18.59;51.73;102484.75;5027279;28;1255;-68
2022/01/25 03:16:22;;;;;;;;;;;;;;;18.50;51.97;102487.94;5023542;28;1042;-68
2022/01/25 03:18:50;;;;;;;;;;;;;;;18.45;52.36;102484.69;5023941;28;1667;-67
2022/01/25 03:21:21;;;;;;;;;;;;;;;18.38;52.02;102480.63;5027838;28;1407;-67
2022/01/25 03:23:47;;;;;;;;;;;;;;;18.31;52.33;102482.81;5027639;28;1554;-67
2022/01/25 03:26:15;;;;;;;;;;;;;;;18.23;52.38;102477.06;5025122;28;1511;-67
2022/01/25 03:28:42;;;;;;;;;;;;;;;18.18;52.47;102477.31;5026461;28;1910;-65
2022/01/25 03:31:09;;;;;;;;;;;;;;;18.12;52.65;102458.06;5032322;28;1243;-67
2022/01/25 03:33:36;;;;;;;;;;;;;;;18.07;52.20;102461.00;5028155;28;1615;-67
2022/01/25 03:36:03;;;;;;;;;;;;;;;18.00;51.81;102464.97;5027700;28;1650;-67
2022/01/25 03:38:29;;;;;;;;;;;;;;;17.98;51.75;102462.38;5027602;28;1615;-67
2022/01/25 03:40:56;;;;;;;;;;;;;;;17.89;51.99;102452.22;5026735;28;1623;-67
2022/01/25 03:43:24;;;;;;;;;;;;;;;17.86;51.72;102455.91;5033267;28;1328;-68
2022/01/25 03:46:01;;;;;;;;;;;;;;;17.73;51.91;102444.16;5017867;28;1015;-66
2022/01/25 03:51:11;;;;;;;;;;;;;;;17.66;52.32;102450.78;5024353;28;1491;-67
2022/01/25 03:53:38;;;;;;;;;;;;;;;17.65;52.30;102449.09;5029880;28;1258;-68
2022/01/25 03:56:05;;;;;;;;;;;;;;;17.65;52.06;102459.78;5024711;28;1627;-66
2022/01/25 03:58:33;;;;;;;;;;;;;;;17.61;52.13;102450.19;5029667;28;1383;-68
2022/01/25 04:00:59;;;;;;;;;;;;;;;17.56;52.52;102460.28;5028237;28;1203;-67
2022/01/25 04:03:31;;;;;;;;;;;;;;;17.49;52.11;102441.91;5028214;28;1487;-68
2022/01/25 04:05:58;;;;;;;;;;;;;;;17.48;52.51;102463.38;5026036;28;1691;-66
2022/01/25 04:08:25;;;;;;;;;;;;;;;17.46;53.17;102460.78;5026118;28;1883;-68
2022/01/25 04:10:52;;;;;;;;;;;;;;;17.42;53.26;102461.88;5026172;28;1575;-68
2022/01/25 04:13:19;;;;;;;;;;;;;;;17.45;52.77;102461.75;5031269;28;1381;-68
2022/01/25 04:15:48;;;;;;;;;;;;;;;17.53;53.00;102453.31;5028523;28;1035;-67
2022/01/25 04:18:25;;;;;;;;;;;;;;;17.52;53.41;102461.41;5024512;28;1449;-67
2022/01/25 04:26:19;;;;;;;;;;;;;;;17.60;53.18;102454.66;5027757;28;1624;-68
2022/01/25 04:28:46;;;;;;;;;;;;;;;17.62;52.84;102457.25;5030101;28;1910;-67
2022/01/25 04:31:16;;;;;;;;;;;;;;;17.59;53.51;102460.13;5023353;28;1267;-67
2022/01/25 04:33:55;;;;;;;;;;;;;;;17.59;53.54;102454.78;5023526;28;1522;-66
2022/01/25 04:36:52;;;;;;;;;;;;;;;17.59;53.43;102454.78;5022296;28;1530;-68
2022/01/25 04:50:43;;;;;;;;;;;;;;;17.49;53.29;102447.25;5022045;28;1965;-66
2022/01/25 04:53:16;;;;;;;;;;;;;;;17.49;53.29;102454.41;5031873;28;1298;-66
2022/01/25 04:55:49;;;;;;;;;;;;;;;17.48;53.55;102439.31;5020464;28;1412;-68
2022/01/25 04:58:22;;;;;;;;;;;;;;;17.46;53.42;102441.19;5024400;28;1567;-68
2022/01/25 05:00:49;;;;;;;;;;;;;;;17.46;53.66;102443.88;5027439;28;1325;-68
2022/01/25 05:03:23;;;;;;;;;;;;;;;17.42;53.47;102453.88;5032047;28;1547;-66
2022/01/25 05:05:57;;;;;;;;;;;;;;;17.38;53.73;102441.63;5024885;28;1440;-66
2022/01/25 05:08:33;;;;;;;;;;;;;;;17.37;53.49;102439.91;5031076;28;1973;-66
2022/01/25 05:11:05;;;;;;;;;;;;;;;17.38;53.62;102444.28;5025358;28;1638;-67
2022/01/25 05:13:42;;;;;;;;;;;;;;;17.36;53.80;102426.63;5029485;28;1555;-68
2022/01/25 05:16:16;;;;;;;;;;;;;;;17.32;53.67;102441.94;5032859;28;1744;-67
2022/01/25 05:18:46;;;;;;;;;;;;;;;17.33;53.82;102435.69;5032473;28;1638;-68
2022/01/25 05:23:57;;;;;;;;;;;;;;;17.29;53.84;102436.78;5026935;28;1721;-68
2022/01/25 05:26:25;;;;;;;;;;;;;;;17.35;53.73;102436.44;5024433;28;1361;-67
2022/01/25 05:28:51;;;;;;;;;;;;;;;17.30;53.87;102434.00;5028213;28;1902;-67
2022/01/25 05:31:18;;;;;;;;;;;;;;;17.26;53.51;102423.56;5021279;28;1267;-68
2022/01/25 05:33:46;;;;;;;;;;;;;;;17.41;53.03;102429.91;5021061;28;1593;-66
2022/01/25 05:36:13;;;;;;;;;;;;;;;17.78;52.52;102428.69;5027688;28;1400;-68
2022/01/25 05:38:42;;;;;;;;;;;;;;;18.20;51.36;102421.84;5020907;28;1517;-67
2022/01/25 05:41:08;;;;;;;;;;;;;;;18.43;51.24;102431.22;5024285;28;1345;-66
2022/01/25 05:46:30;;;;;;;;;;;;;;;18.86;50.41;102427.78;5022571;28;1780;-68
2022/01/25 05:48:58;;;;;;;;;;;;;;;18.83;50.18;102418.13;5028027;28;1971;-67
2022/01/25 05:51:25;;;;;;;;;;;;;;;18.80;50.48;102431.72;5032651;28;1428;-68
2022/01/25 05:53:51;;;;;;;;;;;;;;;18.92;49.97;102421.19;5023502;28;1442;-67
2022/01/25 05:56:18;;;;;;;;;;;;;;;19.03;49.49;102421.38;5022696;28;1405;-68
2022/01/25 05:58:45;;;;;;;;;;;;;;;19.15;50.06;102409.88;5021436;28;1474;-68
2022/01/25 06:01:11;;;;;;;;;;;;;;;19.00;50.74;102430.50;5033895;28;1446;-67
2022/01/25 06:03:41;;;;;;;;;;;;;;;19.13;50.23;102424.34;5028768;28;1788;-64
2022/01/25 06:06:09;;;;;;;;;;;;;;;19.04;49.32;102413.25;5021382;28;1591;-65
2022/01/25 06:08:35;;;;;;;;;;;;;;;19.02;49.98;102419.66;5024647;28;1571;-67
2022/01/25 06:11:02;;;;;;;;;;;;;;;19.04;49.81;102413.25;5028186;28;1967;-66
2022/01/25 06:13:28;;;;;;;;;;;;;;;19.06;49.95;102421.22;5023849;28;1185;-65
2022/01/25 06:15:55;;;;;;;;;;;;;;;19.08;49.88;102401.38;5025287;28;1377;-63
2022/01/25 06:18:21;;;;;;;;;;;;;;;19.11;49.93;102410.19;5026102;28;1373;-64
2022/01/25 06:20:48;;;;;;;;;;;;;;;19.05;49.70;102401.56;5023772;28;1337;-67
2022/01/25 06:23:16;;;;;;;;;;;;;;;19.07;49.67;102405.00;5023076;28;1370;-64
2022/01/25 06:25:42;;;;;;;;;;;;;;;19.21;51.87;102403.28;5032127;28;1582;-62
2022/01/25 06:28:09;;;;;;;;;;;;;;;19.22;51.65;102407.69;5020765;28;1438;-66
2022/01/25 06:30:35;;;;;;;;;;;;;;;19.20;51.68;102402.44;5027873;28;1977;-59
2022/01/25 06:33:02;;;;;;;;;;;;;;;19.17;52.47;102405.28;5029868;28;1654;-70
2022/01/25 06:35:30;;;;;;;;;;;;;;;19.08;52.00;102400.53;5024769;28;1424;-65
2022/01/25 06:37:57;;;;;;;;;;;;;;;19.05;51.97;102396.19;5020550;28;1638;-64
2022/01/25 06:40:25;;;;;;;;;;;;;;;19.07;53.01;102399.63;5026299;28;1398;-68
2022/01/25 06:42:52;;;;;;;;;;;;;;;19.08;53.93;102401.38;5032608;28;1333;-65
2022/01/25 06:45:20;;;;;;;;;;;;;;;19.01;54.31;102391.97;5029330;28;1477;-74
2022/01/25 06:47:48;;;;;;;;;;;;;;;18.93;54.25;102378.19;5027067;28;1729;-69
2022/01/25 06:50:16;;;;;;;;;;;;;;;19.08;53.25;102385.28;5029076;28;1906;-68
2022/01/25 06:52:42;;;;;;;;;;;;;;;18.93;54.42;102375.53;5025146;28;1502;-71
2022/01/25 06:55:11;;;;;;;;;;;;;;;18.84;54.58;102389.47;5025063;28;1691;-69
2022/01/25 06:57:39;;;;;;;;;;;;;;;18.60;53.42;102379.31;5025225;28;1438;-63
2022/01/25 07:00:07;;;;;;;;;;;;;;;18.61;53.09;102394.41;5027103;28;1438;-63
2022/01/25 07:02:34;;;;;;;;;;;;;;;18.61;53.16;102367.63;5029496;28;1513;-63
2022/01/25 07:05:01;;;;;;;;;;;;;;;18.66;53.17;102378.94;5025559;28;1489;-65
2022/01/25 07:07:28;;;;;;;;;;;;;;;18.71;52.86;102380.47;5031613;28;1565;-63
2022/01/25 07:09:55;;;;;;;;;;;;;;;18.65;52.84;102355.75;5028866;28;1971;-64
2022/01/25 07:12:22;;;;;;;;;;;;;;;18.69;53.78;102377.88;5033188;28;1434;-73
2022/01/25 07:14:50;;;;;;;;;;;;;;;18.69;53.92;102365.31;5025364;28;1666;-68
2022/01/25 07:17:16;;;;;;;;;;;;;;;18.77;54.12;102355.97;5022838;28;1624;-67
2022/01/25 07:19:43;;;;;;;;;;;;;;;18.72;53.95;102376.81;5024532;28;1408;-62
2022/01/25 07:22:09;;;;;;;;;;;;;;;18.69;54.83;102361.78;5032543;28;1408;-66
2022/01/25 07:24:36;;;;;;;;;;;;;;;18.68;54.62;102371.66;5029216;28;1278;-68
2022/01/25 07:27:03;;;;;;;;;;;;;;;18.69;54.85;102383.22;5025268;28;1699;-66
2022/01/25 07:29:29;;;;;;;;;;;;;;;18.73;54.13;102378.56;5030070;28;1906;-57
2022/01/25 07:31:59;;;;;;;;;;;;;;;18.77;53.92;102377.41;5022886;28;1388;-64
2022/01/25 07:34:26;;;;;;;;;;;;;;;18.73;54.35;102383.91;5025990;28;1630;-68
2022/01/25 07:36:53;;;;;;;;;;;;;;;18.76;53.75;102389.94;5017554;28;1041;-62
2022/01/25 07:39:20;;;;;;;;;;;;;;;18.86;53.75;102385.78;5029324;28;1615;-72
2022/01/25 07:41:46;;;;;;;;;;;;;;;18.88;54.67;102369.59;5030865;28;1615;-59
2022/01/25 07:44:13;;;;;;;;;;;;;;;18.90;54.14;102374.84;5030610;28;1301;-66
2022/01/25 07:46:40;;;;;;;;;;;;;;;18.83;54.09;102374.38;5022971;28;1318;-56
2022/01/25 07:49:08;;;;;;;;;;;;;;;18.76;54.10;102362.25;5023593;28;1647;-66
2022/01/25 07:51:35;;;;;;;;;;;;;;;18.64;54.89;102363.88;5022552;28;1923;-58
2022/01/25 07:54:02;;;;;;;;;;;;;;;18.67;54.39;102358.34;5029602;28;1460;-66
2022/01/25 07:56:28;;;;;;;;;;;;;;;18.65;54.68;102370.97;5031458;28;1626;-61
2022/01/25 07:58:55;;;;;;;;;;;;;;;18.72;54.49;102358.06;5026921;28;1640;-62
2022/01/25 08:01:22;;;;;;;;;;;;;;;18.73;54.73;102365.16;5028327;28;1333;-68
2022/01/25 08:03:48;;;;;;;;;;;;;;;18.61;54.96;102359.59;5029641;28;1268;-61
2022/01/25 08:06:16;;;;;;;;;;;;;;;18.64;54.89;102355.84;5031328;28;1681;-68
2022/01/25 08:08:43;;;;;;;;;;;;;;;18.66;54.55;102362.84;5026710;28;1576;-69
2022/01/25 08:11:10;;;;;;;;;;;;;;;18.66;54.77;102344.09;5030801;28;1902;-61
2022/01/25 08:13:38;;;;;;;;;;;;;;;18.66;54.86;102359.28;5027001;28;1586;-61
2022/01/25 08:16:05;;;;;;;;;;;;;;;18.68;54.76;102360.94;5024747;28;1235;-66
2022/01/25 08:18:31;;;;;;;;;;;;;;;18.68;54.50;102352.91;5025892;28;1499;-60
2022/01/25 08:20:58;;;;;;;;;;;;;;;18.89;53.71;102352.53;5028463;28;1595;-68
2022/01/25 08:23:26;;;;;;;;;;;;;;;18.88;53.96;102345.47;5028644;28;1558;-63
2022/01/25 08:25:52;;;;;;;;;;;;;;;18.89;53.62;102339.16;5028090;28;1626;-64
2022/01/25 08:28:20;;;;;;;;;;;;;;;18.89;54.04;102344.50;5027259;28;1543;-59
2022/01/25 08:30:47;;;;;;;;;;;;;;;18.90;54.29;102346.25;5034438;28;1906;-59
2022/01/25 08:33:14;;;;;;;;;;;;;;;18.91;54.05;102347.94;5029465;28;1518;-58
2022/01/25 08:35:40;;;;;;;;;;;;;;;18.93;53.29;102350.53;5024832;28;1626;-66
2022/01/25 08:38:07;;;;;;;;;;;;;;;18.99;53.00;102334.06;5025577;28;1531;-66
2022/01/25 08:40:35;;;;;;;;;;;;;;;18.94;53.54;102331.69;5027959;28;1648;-58
2022/01/25 08:43:01;;;;;;;;;;;;;;;18.96;53.24;102335.13;5026337;28;1484;-63
2022/01/25 08:45:28;;;;;;;;;;;;;;;19.00;52.71;102328.63;5034116;28;1390;-68
2022/01/25 08:47:55;;;;;;;;;;;;;;;19.04;53.28;102330.13;5029628;28;1722;-68
2022/01/25 08:50:21;;;;;;;;;;;;;;;19.06;53.05;102328.22;5031110;28;1894;-60
2022/01/25 08:52:48;;;;;;;;;;;;;;;19.07;53.19;102332.59;5027510;28;1345;-69
2022/01/25 08:55:14;;;;;;;;;;;;;;;19.08;53.54;102326.31;5026898;28;1317;-69
2022/01/25 08:57:42;;;;;;;;;;;;;;;19.11;52.92;102327.91;5028375;28;1511;-61
2022/01/25 09:00:10;;;;;;;;;;;;;;;19.20;51.44;102313.03;5026627;28;1460;-64
2022/01/25 09:02:37;;;;;;;;;;;;;;;19.17;51.91;102308.75;5031833;28;1428;-62
2022/01/25 09:05:04;;;;;;;;;;;;;;;19.21;51.50;102310.28;5024591;28;1238;-57
2022/01/25 09:07:31;;;;;;;;;;;;;;;19.27;51.29;102309.88;5038720;28;1436;-60
2022/01/25 09:09:57;;;;;;;;;;;;;;;19.22;52.01;102300.44;5025782;28;1914;-66
2022/01/25 09:12:24;;;;;;;;;;;;;;;19.20;52.01;102291.59;5029350;28;1208;-61
2022/01/25 09:14:52;;;;;;;;;;;;;;;19.22;51.81;102300.44;5030609;28;1869;-59
2022/01/25 09:17:19;;;;;;;;;;;;;;;19.22;52.18;102289.69;5018741;28;1448;-63
2022/01/25 09:19:45;;;;;;;;;;;;;;;19.21;52.49;102296.84;5026636;28;1344;-58
2022/01/25 09:22:12;;;;;;;;;;;;;;;19.14;51.72;102286.63;5025637;28;1468;-58
2022/01/25 09:24:38;;;;;;;;;;;;;;;19.12;51.95;102278.72;5035074;28;1335;-65
2022/01/25 09:27:07;;;;;;;;;;;;;;;19.10;52.16;102274.38;5023926;28;1726;-63
2022/01/25 09:29:34;;;;;;;;;;;;;;;19.10;51.98;102280.63;5028589;28;1733;-56
2022/01/25 09:32:02;;;;;;;;;;;;;;;19.10;52.54;102285.09;5023759;28;1967;-68
2022/01/25 09:34:29;;;;;;;;;;;;;;;19.22;52.44;102284.34;5020096;28;1341;-60
2022/01/25 09:36:56;;;;;;;;;;;;;;;19.00;51.08;102303.59;5027928;28;1332;-60
2022/01/25 09:39:22;;;;;;;;;;;;;;;18.66;51.37;102294.97;5022469;28;1793;-65
2022/01/25 09:41:49;;;;;;;;;;;;;;;18.53;50.82;102286.84;5028869;28;1521;-59
2022/01/25 09:44:16;;;;;;;;;;;;;;;18.39;49.54;102281.50;5021672;28;1622;-58
2022/01/25 09:46:43;;;;;;;;;;;;;;;18.35;47.40;102296.03;5032694;28;1302;-59
2022/01/25 09:49:11;;;;;;;;;;;;;;;18.34;48.63;102278.22;5026701;28;1832;-62
2022/01/25 09:51:39;;;;;;;;;;;;;;;18.54;47.98;102277.84;5028108;28;1913;-61
2022/01/25 09:54:06;;;;;;;;;;;;;;;18.60;48.09;102274.81;5028228;28;1678;-60
2022/01/25 09:56:33;;;;;;;;;;;;;;;18.61;48.58;102273.84;5025425;28;1465;-60
2022/01/25 09:59:00;;;;;;;;;;;;;;;18.68;49.47;102277.88;5023939;28;1619;-59
2022/01/25 10:01:27;;;;;;;;;;;;;;;18.68;49.59;102283.22;5022426;28;1388;-58
2022/01/25 10:03:53;;;;;;;;;;;;;;;18.71;50.03;102275.97;5028229;28;1729;-60
2022/01/25 10:06:22;;;;;;;;;;;;;;;18.74;50.27;102263.22;5020078;28;1598;-60
2022/01/25 10:08:51;;;;;;;;;;;;;;;18.70;50.05;102264.34;5025415;28;1408;-59
2022/01/25 10:11:19;;;;;;;;;;;;;;;18.71;49.99;102259.88;5025675;28;1944;-56
2022/01/25 10:13:46;;;;;;;;;;;;;;;18.91;50.38;102253.28;5025426;28;1590;-61
2022/01/25 10:16:14;;;;;;;;;;;;;;;18.87;50.99;102248.09;5028456;28;1050;-59
2022/01/25 10:18:42;;;;;;;;;;;;;;;18.87;51.19;102257.97;5027771;28;1764;-56
2022/01/25 10:21:13;;;;;;;;;;;;;;;18.88;50.84;102241.78;5026797;28;1428;-60
2022/01/25 10:23:43;;;;;;;;;;;;;;;18.91;51.35;102246.09;5025588;28;1591;-68
2022/01/25 10:26:10;;;;;;;;;;;;;;;18.97;52.11;102252.88;5025176;28;1420;-62
2022/01/25 10:28:37;;;;;;;;;;;;;;;19.12;51.47;102256.38;5028613;28;1583;-68
2022/01/25 10:31:04;;;;;;;;;;;;;;;19.02;52.28;102261.47;5022123;28;1910;-65
2022/01/25 10:33:34;;;;;;;;;;;;;;;18.97;52.24;102243.00;5025494;28;1840;-61
2022/01/25 10:36:01;;;;;;;;;;;;;;;18.96;52.42;102235.94;5024731;28;1190;-65
2022/01/25 10:38:29;;;;;;;;;;;;;;;18.98;52.39;102233.13;5026304;28;1381;-66
2022/01/25 10:41:00;;;;;;;;;;;;;;;18.99;52.17;102230.38;5029884;28;1484;-63
2022/01/25 10:43:28;;;;;;;;;;;;;;;18.89;52.17;102242.66;5029500;28;1408;-59
2022/01/25 10:46:12;;;;;;;;;;;;;;;18.86;52.75;102224.06;5030045;28;1216;-64
2022/01/25 10:48:40;;;;;;;;;;;;;;;18.86;52.45;102224.94;5032586;28;1642;-62
2022/01/25 10:51:07;;;;;;;;;;;;;;;18.88;52.80;102222.19;5025818;28;1909;-57
2022/01/25 10:53:34;;;;;;;;;;;;;;;18.97;52.82;102221.56;5027970;28;1440;-60
2022/01/25 10:56:03;;;;;;;;;;;;;;;19.50;53.96;102223.47;5029489;28;1413;-57
2022/01/25 10:58:29;;;;;;;;;;;;;;;19.32;53.63;102204.09;5024548;28;1512;-61
2022/01/25 11:00:57;;;;;;;;;;;;;;;19.35;53.67;102207.44;5023096;28;1254;-65
2022/01/25 11:03:28;;;;;;;;;;;;;;;19.18;54.14;102200.53;5022860;28;1413;-59
2022/01/25 11:05:55;;;;;;;;;;;;;;;19.37;52.83;102210.88;5027936;28;1422;-57
2022/01/25 11:08:23;;;;;;;;;;;;;;;19.50;53.66;102212.72;5027015;28;1270;-62
2022/01/25 11:10:53;;;;;;;;;;;;;;;19.64;52.26;102199.25;5025220;28;2360;-58
2022/01/25 11:13:34;;;;;;;;;;;;;;;19.51;52.88;102193.84;5025138;28;1449;-65
2022/01/25 11:16:02;;;;;;;;;;;;;;;19.43;53.85;102186.31;5029260;28;1449;-56
2022/01/25 11:18:30;;;;;;;;;;;;;;;19.34;53.90;102180.72;5023171;28;1448;-59
2022/01/25 11:20:58;;;;;;;;;;;;;;;19.34;54.39;102180.72;5029753;28;1353;-61
2022/01/25 11:23:25;;;;;;;;;;;;;;;19.43;54.89;102170.22;5032566;28;1683;-62
2022/01/25 11:25:52;;;;;;;;;;;;;;;19.33;54.77;102147.69;5030855;28;1344;-58
2022/01/25 11:28:18;;;;;;;;;;;;;;;19.53;53.46;102165.09;5030269;28;1347;-66
2022/01/25 11:30:47;;;;;;;;;;;;;;;19.68;53.02;102136.34;5035760;28;1910;-62
2022/01/25 11:33:14;;;;;;;;;;;;;;;19.57;53.89;102153.19;5031798;28;1306;-64
2022/01/25 11:35:41;;;;;;;;;;;;;;;19.43;54.47;102142.53;5032949;28;1350;-63
2022/01/25 11:38:08;;;;;;;;;;;;;;;19.75;53.61;102132.28;5034978;28;1559;-68
2022/01/25 11:40:38;;;;;;;;;;;;;;;19.44;54.64;102137.09;5031780;28;1884;-61
2022/01/25 11:43:06;;;;;;;;;;;;;;;19.45;54.81;102140.63;5034420;28;1496;-62
2022/01/25 11:45:35;;;;;;;;;;;;;;;19.37;54.75;102134.91;5033619;28;1108;-64
2022/01/25 11:48:03;;;;;;;;;;;;;;;19.34;54.69;102125.25;5028776;28;1294;-66
2022/01/25 11:50:30;;;;;;;;;;;;;;;19.36;55.16;102136.75;5030837;28;1902;-62
2022/01/25 11:53:01;;;;;;;;;;;;;;;19.56;53.38;102115.75;5028503;28;1369;-67
2022/01/25 11:55:28;;;;;;;;;;;;;;;19.58;53.93;102130.78;5035043;28;1444;-66
2022/01/25 11:57:56;;;;;;;;;;;;;;;19.50;53.98;102124.19;5029468;28;1280;-64
2022/01/25 12:00:23;;;;;;;;;;;;;;;19.43;53.71;102110.34;5032426;28;1445;-61
2022/01/25 12:02:53;;;;;;;;;;;;;;;19.27;52.61;102116.75;5027490;28;1450;-58
2022/01/25 12:05:25;;;;;;;;;;;;;;;19.22;53.65;102104.66;5028262;28;1508;-63
2022/01/25 12:08:14;;;;;;;;;;;;;;;19.22;54.06;102123.44;5033946;28;1395;-65
2022/01/25 12:10:43;;;;;;;;;;;;;;;19.17;54.22;102113.00;5030867;28;1906;-58
2022/01/25 12:13:14;;;;;;;;;;;;;;;19.10;53.49;102108.13;5034835;28;1507;-58
2022/01/25 12:15:41;;;;;;;;;;;;;;;19.08;54.12;102100.22;5031402;28;1126;-57
2022/01/25 12:18:09;;;;;;;;;;;;;;;19.05;54.19;102100.41;5030799;28;1499;-58
2022/01/25 12:20:46;;;;;;;;;;;;;;;18.98;54.30;102097.31;5029726;28;1456;-57
2022/01/25 12:23:18;;;;;;;;;;;;;;;18.92;54.56;102091.47;5029551;28;1455;-61
2022/01/25 12:25:48;;;;;;;;;;;;;;;18.86;54.32;102093.63;5033154;28;1461;-62
2022/01/25 12:28:22;;;;;;;;;;;;;;;18.83;55.22;102088.44;5031731;28;1317;-58
2022/01/25 12:30:49;;;;;;;;;;;;;;;18.82;55.06;102073.34;5034913;28;1985;-58
2022/01/25 12:33:20;;;;;;;;;;;;;;;18.80;55.09;102083.31;5029671;28;1503;-57
2022/01/25 12:35:49;;;;;;;;;;;;;;;18.83;55.00;102085.75;5031984;28;1213;-57
2022/01/25 12:38:18;;;;;;;;;;;;;;;18.81;54.64;102076.13;5028374;28;1445;-57
2022/01/25 12:40:55;;;;;;;;;;;;;;;18.81;53.95;102081.47;5029817;28;1690;-57
2022/01/25 12:43:23;;;;;;;;;;;;;;;18.81;54.83;102073.44;5027111;28;1500;-57
2022/01/25 12:45:51;;;;;;;;;;;;;;;18.84;54.09;102070.53;5027732;28;1428;-57
2022/01/25 12:48:19;;;;;;;;;;;;;;;18.85;54.32;102077.63;5026021;28;1722;-59
2022/01/25 12:50:48;;;;;;;;;;;;;;;18.85;54.12;102072.28;5031708;28;1906;-62
2022/01/25 12:53:16;;;;;;;;;;;;;;;18.94;53.22;102062.75;5029542;28;1376;-62
2022/01/25 12:55:44;;;;;;;;;;;;;;;18.92;52.88;102057.50;5027883;28;1877;-67
2022/01/25 12:58:12;;;;;;;;;;;;;;;18.88;53.59;102066.72;5033591;28;1388;-70
2022/01/25 13:00:40;;;;;;;;;;;;;;;18.91;52.81;102044.19;5036910;28;1280;-63
2022/01/25 13:03:18;;;;;;;;;;;;;;;19.15;55.10;102052.41;5030052;28;1603;-61
2022/01/25 13:05:46;;;;;;;;;;;;;;;19.33;55.86;102056.47;5031468;28;1354;-62
2022/01/25 13:08:21;;;;;;;;;;;;;;;19.18;54.67;102057.53;5029254;28;1737;-59
2022/01/25 13:10:49;;;;;;;;;;;;;;;19.33;54.26;102043.06;5032275;28;1448;-63
2022/01/25 13:13:23;;;;;;;;;;;;;;;19.25;54.63;102040.06;5025401;28;1903;-62
2022/01/25 13:15:56;;;;;;;;;;;;;;;19.17;53.93;102045.09;5035034;28;1111;-66
2022/01/25 13:18:25;;;;;;;;;;;;;;;19.23;53.83;102036.63;5032770;28;1722;-65
2022/01/25 13:20:59;;;;;;;;;;;;;;;19.23;54.97;102044.66;5025566;28;1635;-66
2022/01/25 13:23:27;;;;;;;;;;;;;;;19.41;53.89;102037.16;5026840;28;1484;-66
2022/01/25 13:25:57;;;;;;;;;;;;;;;19.43;54.15;102038.78;5031942;28;1424;-62
2022/01/25 13:28:36;;;;;;;;;;;;;;;19.44;57.00;102043.19;5026055;28;1526;-63
2022/01/25 13:31:06;;;;;;;;;;;;;;;19.39;57.90;102037.28;5019140;28;1975;-63
2022/01/25 13:33:33;;;;;;;;;;;;;;;19.19;57.90;102038.66;5023957;28;1420;-64
2022/01/25 13:36:01;;;;;;;;;;;;;;;19.11;58.74;102034.81;5029159;28;1582;-60
2022/01/25 13:38:31;;;;;;;;;;;;;;;19.02;59.60;102039.84;5031372;28;1575;-64
2022/01/25 13:41:08;;;;;;;;;;;;;;;18.93;59.54;102035.09;5030052;28;1702;-67
2022/01/25 13:46:22;;;;;;;;;;;;;;;18.84;58.44;102024.97;5035588;28;1075;-61
2022/01/25 13:48:50;;;;;;;;;;;;;;;18.77;59.01;102037.91;5034423;28;1718;-60
2022/01/25 13:51:17;;;;;;;;;;;;;;;18.72;58.78;102033.81;5027700;28;1981;-61
2022/01/25 13:53:50;;;;;;;;;;;;;;;18.68;58.73;102028.69;5033701;28;1476;-61
2022/01/25 13:56:17;;;;;;;;;;;;;;;18.65;58.32;102034.22;5032843;28;1757;-61
2022/01/25 13:58:46;;;;;;;;;;;;;;;18.64;58.98;102032.53;5026846;28;1356;-60
2022/01/25 14:01:14;;;;;;;;;;;;;;;18.62;58.39;102044.28;5031311;28;1301;-65
2022/01/25 14:03:42;;;;;;;;;;;;;;;18.64;57.77;102037.00;5032903;28;1464;-61
2022/01/25 14:06:20;;;;;;;;;;;;;;;18.64;57.55;102043.25;5028655;28;2001;-64
2022/01/25 14:08:48;;;;;;;;;;;;;;;18.61;57.43;102038.06;5028066;28;1390;-67